Time;durP1;ratioP1;P1;durP2;ratioP2;P2;SDS_P1;SDS_P2;PMS_P1;PMS_P2;Temp;Humidity;BMP_temperature;BMP_pressure;BME280_temperature;BME280_humidity;BME280_pressure;Samples;Min_cycle;Max_cycle;Signal;HPM_P1;HPM_P2
2022/12/13 00:01:31;;;;;;;30.25;15.80;;;;;;;-3.62;100.00;99618.25;5046539;28;20450;-81
2022/12/13 00:04:02;;;;;;;33.13;17.48;;;;;;;-3.59;100.00;99610.38;5018863;28;20111;-81
2022/12/13 00:06:29;;;;;;;36.22;17.92;;;;;;;-3.56;100.00;99617.13;5061128;28;20036;-90
2022/12/13 00:08:56;;;;;;;29.73;16.15;;;;;;;-3.58;100.00;99617.19;5034151;28;20048;-91
2022/12/13 00:11:23;;;;;;;29.13;15.85;;;;;;;-3.54;100.00;99612.72;5036731;28;20489;-81
2022/12/13 00:13:49;;;;;;;28.55;16.10;;;;;;;-3.52;100.00;99614.31;5046122;28;20044;-81
2022/12/13 00:16:23;;;;;;;32.67;16.08;;;;;;;-3.49;100.00;99619.34;5033054;28;20075;-81
2022/12/13 00:18:54;;;;;;;31.75;16.30;;;;;;;-3.48;100.00;99609.84;5030432;28;20032;-81
2022/12/13 00:21:23;;;;;;;27.50;15.82;;;;;;;-3.49;100.00;99615.94;5049963;28;20035;-81
2022/12/13 00:23:57;;;;;;;30.05;16.05;;;;;;;-3.47;100.00;99610.69;5014012;28;20056;-81
2022/12/13 00:26:27;;;;;;;32.15;16.75;;;;;;;-3.49;100.00;99615.94;5045494;28;20044;-81
2022/12/13 00:29:09;;;;;;;22.85;13.52;;;;;;;-3.49;100.00;99609.00;5039836;28;20025;-81
2022/12/13 00:31:41;;;;;;;26.95;15.18;;;;;;;-3.51;100.00;99612.56;5044313;28;20045;-80
2022/12/13 00:34:12;;;;;;;29.05;16.13;;;;;;;-3.51;100.00;99612.56;5064110;28;20359;-81
2022/12/13 00:36:39;;;;;;;30.10;15.45;;;;;;;-3.50;100.00;99609.06;5038815;28;20399;-81
2022/12/13 00:39:15;;;;;;;33.80;16.60;;;;;;;-3.52;100.00;99621.25;5029925;28;20102;-81
2022/12/13 00:41:42;;;;;;;29.40;15.65;;;;;;;-3.52;100.00;99622.06;5026081;28;20528;-81
2022/12/13 00:44:12;;;;;;;25.33;14.50;;;;;;;-3.52;100.00;99614.31;5043958;28;20043;-81
2022/12/13 00:46:45;;;;;;;25.25;14.27;;;;;;;-3.51;100.00;99617.75;5020591;28;20021;-81
2022/12/13 00:49:12;;;;;;;26.80;15.27;;;;;;;-3.50;100.00;99622.00;5049888;28;20032;-81
2022/12/13 00:51:39;;;;;;;25.25;15.07;;;;;;;-3.43;100.00;99618.22;5027970;28;20044;-81
2022/12/13 00:54:05;;;;;;;26.15;14.40;;;;;;;-3.41;100.00;99618.94;5029873;28;20097;-81
2022/12/13 00:56:31;;;;;;;29.38;15.60;;;;;;;-3.34;100.00;99623.84;5028801;28;20119;-81
2022/12/13 00:59:01;;;;;;;27.25;15.43;;;;;;;-3.35;100.00;99625.59;5036532;28;20470;-81
2022/12/13 01:01:35;;;;;;;35.30;17.23;;;;;;;-3.33;100.00;99622.94;5029134;28;20075;-80
2022/12/13 01:04:06;;;;;;;37.67;18.55;;;;;;;-3.34;100.00;99621.25;5043784;28;20421;-81
2022/12/13 01:06:50;;;;;;;32.53;16.75;;;;;;;-3.36;100.00;99619.56;5029106;28;20044;-81
2022/12/13 01:09:32;;;;;;;;;;;;;;;;;;;;;
2022/12/13 01:12:04;;;;;;;27.25;15.23;;;;;;;-3.44;100.00;99620.88;5025181;28;20039;-81
2022/12/13 01:14:30;;;;;;;29.95;15.20;;;;;;;-3.47;100.00;99626.19;5025310;28;20064;-80
2022/12/13 01:16:59;;;;;;;26.77;14.95;;;;;;;-3.49;100.00;99626.25;5029382;28;20386;-81
2022/12/13 01:19:36;;;;;;;25.15;14.48;;;;;;;-3.50;100.00;99622.00;5047232;28;20531;-81
2022/12/13 01:22:05;;;;;;;29.45;15.90;;;;;;;-3.51;100.00;99620.31;5029521;28;20047;-80
2022/12/13 01:24:40;;;;;;;29.58;15.57;;;;;;;-3.49;100.00;99614.16;5057297;28;20128;-81
2022/12/13 01:27:06;;;;;;;30.27;15.75;;;;;;;-3.51;100.00;99610.84;5001030;28;20064;-81
2022/12/13 01:29:32;;;;;;;32.83;18.10;;;;;;;-3.50;100.00;99609.91;5039121;28;20037;-81
2022/12/13 01:31:58;;;;;;;35.03;17.52;;;;;;;-3.49;100.00;99611.56;5045976;28;20041;-81
2022/12/13 01:34:26;;;;;;;34.35;17.30;;;;;;;-3.44;100.00;99619.09;5045781;28;20047;-81
2022/12/13 01:37:02;;;;;;;29.73;17.17;;;;;;;-3.44;100.00;99613.94;5012827;28;20037;-81
2022/12/13 01:39:31;;;;;;;32.83;16.92;;;;;;;-3.47;100.00;99619.25;5020607;28;20084;-81
2022/12/13 01:42:10;;;;;;;29.58;16.33;;;;;;;-3.48;100.00;99617.59;5021958;28;20041;-81
2022/12/13 01:45:25;;;;;;;26.38;16.35;;;;;;;-3.46;100.00;99613.19;5025770;28;20034;-81
2022/12/13 01:47:56;;;;;;;31.10;17.10;;;;;;;-3.46;100.00;99613.19;4979343;28;20049;-81
2022/12/13 01:50:33;;;;;;;33.22;15.98;;;;;;;-3.44;100.00;99615.72;5021096;28;20045;-81
2022/12/13 01:53:09;;;;;;;33.47;17.25;;;;;;;-3.46;100.00;99620.94;5034705;28;20046;-81
2022/12/13 01:55:41;;;;;;;31.50;17.58;;;;;;;-3.43;100.00;99619.94;5038631;28;20045;-81
2022/12/13 01:58:11;;;;;;;33.10;17.50;;;;;;;-3.39;100.00;99617.13;5028393;28;20043;-80
2022/12/13 02:00:40;;;;;;;37.08;17.88;;;;;;;-3.36;100.00;99624.75;5029781;28;20067;-81
2022/12/13 02:03:10;;;;;;;28.88;16.05;;;;;;;-3.34;100.00;99632.41;5046344;28;20492;-81
2022/12/13 02:05:52;;;;;;;29.58;17.20;;;;;;;-3.34;100.00;99629.03;5028986;28;20033;-81
2022/12/13 02:08:19;;;;;;;32.00;15.90;;;;;;;-3.39;100.00;99626.63;5028797;28;20060;-80
2022/12/13 02:10:51;;;;;;;25.60;13.45;;;;;;;-3.38;100.00;99630.91;5064991;28;20099;-81
2022/12/13 02:13:17;;;;;;;26.27;14.57;;;;;;;-3.40;100.00;99630.97;5033615;28;20066;-80
2022/12/13 02:15:49;;;;;;;30.15;16.15;;;;;;;-3.32;100.00;99633.19;5043997;28;20040;-81
2022/12/13 02:18:50;;;;;;;27.13;15.77;;;;;;;-3.25;100.00;99634.53;5032486;28;20450;-80
2022/12/13 02:21:30;;;;;;;27.75;16.23;;;;;;;-3.22;100.00;99636.16;5046245;28;20036;-81
2022/12/13 02:24:05;;;;;;;29.25;15.63;;;;;;;-3.21;100.00;99637.81;5046064;28;20427;-80
2022/12/13 02:26:46;;;;;;;25.87;16.07;;;;;;;-3.21;100.00;99636.97;5042968;28;20095;-81
2022/12/13 02:29:47;;;;;;;29.42;15.85;;;;;;;-3.18;100.00;99639.41;5039421;28;20044;-81
2022/12/13 02:32:38;;;;;;;26.65;15.25;;;;;;;-3.17;100.00;99641.91;5041681;28;20066;-80
2022/12/13 02:35:13;;;;;;;26.20;14.30;;;;;;;-3.16;100.00;99646.19;5044816;28;20045;-81
2022/12/13 02:38:13;;;;;;;24.55;13.93;;;;;;;-3.13;100.00;99648.63;5043689;28;20068;-80
2022/12/13 02:40:50;;;;;;;25.27;15.02;;;;;;;-3.13;100.00;99640.88;5006138;28;20122;-80
2022/12/13 02:43:25;;;;;;;24.77;15.38;;;;;;;-3.10;100.00;99652.81;5044943;28;20501;-81
2022/12/13 02:46:02;;;;;;;25.48;14.02;;;;;;;-3.15;100.00;99645.28;5016225;28;20040;-89
2022/12/13 02:48:35;;;;;;;32.70;15.25;;;;;;;-3.14;100.00;99653.88;5045798;28;20029;-89
2022/12/13 02:51:06;;;;;;;25.27;15.00;;;;;;;-3.12;100.00;99649.44;5043478;28;20060;-81
2022/12/13 02:53:33;;;;;;;23.73;14.25;;;;;;;-3.15;100.00;99645.28;5042331;28;20493;-80
2022/12/13 02:56:01;;;;;;;29.95;16.27;;;;;;;-3.17;100.00;99641.09;5059791;28;20040;-91
2022/12/13 02:58:34;;;;;;;28.50;14.60;;;;;;;-3.13;100.00;99643.47;5027680;28;20067;-91
2022/12/13 03:01:30;;;;;;;26.73;14.52;;;;;;;-3.18;100.00;99642.84;5044264;28;20396;-81
2022/12/13 03:04:08;;;;;;;28.58;14.25;;;;;;;-3.24;100.00;99637.97;5043025;28;20512;-81
2022/12/13 03:06:43;;;;;;;27.80;15.07;;;;;;;-3.32;100.00;99638.34;5028372;28;20040;-82
2022/12/13 03:09:28;;;;;;;38.75;17.25;;;;;;;-3.32;100.00;99629.75;5041717;28;20047;-80
2022/12/13 03:15:11;;;;;;;34.50;17.40;;;;;;;-3.30;100.00;99630.53;5048058;28;20037;-81
2022/12/13 03:17:43;;;;;;;29.33;15.63;;;;;;;-3.27;100.00;99627.78;5032086;28;20397;-81
2022/12/13 03:20:14;;;;;;;36.08;18.20;;;;;;;-3.31;100.00;99624.50;5029225;28;20390;-81
2022/12/13 03:22:40;;;;;;;31.38;16.15;;;;;;;-3.27;100.00;99622.63;5063148;28;20140;-81
2022/12/13 03:25:07;;;;;;;30.52;16.38;;;;;;;-3.26;100.00;99626.88;5028093;28;20040;-81
2022/12/13 03:27:33;;;;;;;28.52;15.65;;;;;;;-3.24;100.00;99641.41;5031465;28;20135;-81
2022/12/13 03:30:22;;;;;;;31.45;16.08;;;;;;;-3.23;100.00;99647.41;5029941;28;20123;-81
2022/12/13 03:32:50;;;;;;;28.90;15.80;;;;;;;-3.26;100.00;99645.81;5034510;28;20090;-81
2022/12/13 03:35:23;;;;;;;29.50;15.77;;;;;;;-3.25;100.00;99637.13;5030989;28;20090;-81
2022/12/13 03:37:50;;;;;;;30.35;16.25;;;;;;;-3.25;100.00;99629.38;5043362;28;20045;-81
2022/12/13 03:40:17;;;;;;;29.70;16.15;;;;;;;-3.19;100.00;99622.25;5048977;28;20603;-81
2022/12/13 03:42:43;;;;;;;27.85;15.43;;;;;;;-3.20;100.00;99631.72;5042025;28;20047;-81
2022/12/13 03:45:21;;;;;;;33.05;15.02;;;;;;;-3.22;100.00;99628.41;5023859;28;20397;-81
2022/12/13 03:47:47;;;;;;;32.05;16.05;;;;;;;-3.27;100.00;99626.06;5031049;28;20370;-81
2022/12/13 03:50:13;;;;;;;25.95;14.00;;;;;;;-3.30;100.00;99623.63;5016057;28;20036;-91
2022/12/13 03:52:43;;;;;;;30.08;16.05;;;;;;;-3.36;100.00;99622.16;5043336;28;20045;-91
2022/12/13 03:55:09;;;;;;;38.20;17.75;;;;;;;-3.44;100.00;99629.44;5043893;28;20037;-82
2022/12/13 03:57:35;;;;;;;32.35;17.17;;;;;;;-3.44;100.00;99632.03;5037663;28;20055;-81
2022/12/13 04:00:06;;;;;;;37.30;16.98;;;;;;;-3.44;100.00;99629.44;5031286;28;20064;-82
2022/12/13 04:02:38;;;;;;;35.83;17.60;;;;;;;-3.45;100.00;99625.19;5054561;28;20040;-81
2022/12/13 04:05:05;;;;;;;37.42;17.60;;;;;;;-3.42;100.00;99609.53;5063201;28;20029;-81
2022/12/13 04:07:30;;;;;;;36.10;18.05;;;;;;;-3.41;100.00;99603.44;5057980;28;20167;-81
2022/12/13 04:10:01;;;;;;;35.08;18.25;;;;;;;-3.40;100.00;99610.31;5025983;28;20128;-81
2022/12/13 04:15:17;;;;;;;34.08;18.00;;;;;;;-3.41;100.00;99602.63;5041242;28;20038;-81
2022/12/13 04:17:46;;;;;;;38.63;18.60;;;;;;;-3.42;100.00;99611.28;5046549;28;20397;-81
2022/12/13 04:20:14;;;;;;;37.47;18.38;;;;;;;-3.40;100.00;99612.91;5029717;28;20106;-81
2022/12/13 04:22:43;;;;;;;37.00;18.15;;;;;;;-3.36;100.00;99608.41;5028048;28;20060;-81
2022/12/13 04:25:10;;;;;;;38.67;16.85;;;;;;;-3.37;100.00;99609.31;5030866;28;20039;-81
2022/12/13 04:27:36;;;;;;;39.42;18.33;;;;;;;-3.38;100.00;99613.63;5031827;28;20068;-81
2022/12/13 04:30:04;;;;;;;37.67;17.42;;;;;;;-3.34;100.00;99616.91;5042079;28;20028;-81
2022/12/13 04:32:30;;;;;;;40.17;17.92;;;;;;;-3.31;100.00;99624.50;5047788;28;20401;-81
2022/12/13 04:34:56;;;;;;;32.28;15.32;;;;;;;-3.25;100.00;99613.88;5021041;28;20117;-81
2022/12/13 04:37:22;;;;;;;38.17;17.58;;;;;;;-3.19;100.00;99617.06;5023167;28;20398;-81
2022/12/13 04:39:59;;;;;;;28.65;15.82;;;;;;;-3.12;100.00;99623.59;5031645;28;20032;-81
2022/12/13 04:42:25;;;;;;;27.83;14.35;;;;;;;-3.08;100.00;99621.69;5057214;28;20041;-81
2022/12/13 04:44:51;;;;;;;26.75;14.13;;;;;;;-3.03;100.00;99628.34;5026167;28;20595;-81
2022/12/13 04:47:16;;;;;;;24.65;14.30;;;;;;;-2.99;100.00;99629.84;5016758;28;20036;-80
2022/12/13 04:49:44;;;;;;;27.48;13.40;;;;;;;-2.96;100.00;99633.19;5025967;28;20040;-81
2022/12/13 04:52:10;;;;;;;26.88;13.38;;;;;;;-2.96;100.00;99621.06;5045741;28;20115;-81
2022/12/13 04:54:39;;;;;;;29.80;14.30;;;;;;;-2.95;100.00;99627.09;5049846;28;20035;-81
2022/12/13 04:57:08;;;;;;;27.67;14.07;;;;;;;-2.95;100.00;99627.09;5047404;28;20071;-81
2022/12/13 04:59:35;;;;;;;26.73;14.57;;;;;;;-2.95;100.00;99629.69;5027974;28;20048;-81
2022/12/13 05:02:03;;;;;;;20.95;12.45;;;;;;;-2.90;100.00;99631.09;5063299;28;20168;-81
2022/12/13 05:04:30;;;;;;;22.73;11.57;;;;;;;-2.84;100.00;99636.88;5031628;28;20035;-81
2022/12/13 05:06:56;;;;;;;23.77;12.23;;;;;;;-2.84;100.00;99626.53;5045215;28;20032;-81
2022/12/13 05:09:23;;;;;;;27.00;12.45;;;;;;;-2.80;100.00;99625.50;5031298;28;20052;-80
2022/12/13 05:11:50;;;;;;;23.92;12.18;;;;;;;-2.79;100.00;99630.59;5045906;28;20033;-81
2022/12/13 05:14:16;;;;;;;24.92;11.77;;;;;;;-2.76;100.00;99635.59;5031336;28;20449;-81
2022/12/13 05:16:42;;;;;;;23.45;12.07;;;;;;;-2.76;100.00;99632.16;5033598;28;20041;-81
2022/12/13 05:19:08;;;;;;;24.42;12.82;;;;;;;-2.72;100.00;99625.09;5012685;28;20029;-81
2022/12/13 05:21:34;;;;;;;22.17;11.77;;;;;;;-2.71;100.00;99621.59;5030431;28;20477;-81
2022/12/13 05:24:09;;;;;;;21.27;11.65;;;;;;;-2.70;100.00;99623.25;5025257;28;20041;-81
2022/12/13 05:26:35;;;;;;;22.33;11.30;;;;;;;-2.71;100.00;99626.75;5014324;28;20052;-80
2022/12/13 05:29:01;;;;;;;20.38;10.80;;;;;;;-2.74;100.00;99618.22;5029588;28;20059;-81
2022/12/13 05:31:27;;;;;;;26.15;13.40;;;;;;;-2.73;100.00;99613.91;5024393;28;20034;-81
2022/12/13 05:33:53;;;;;;;24.77;12.25;;;;;;;-2.75;100.00;99616.56;5012985;28;20041;-81
2022/12/13 05:36:21;;;;;;;22.73;12.05;;;;;;;-2.77;100.00;99612.41;5006330;28;20061;-81
2022/12/13 05:38:47;;;;;;;20.33;11.68;;;;;;;-2.77;100.00;99625.34;5018246;28;20021;-81
2022/12/13 05:41:18;;;;;;;19.60;11.10;;;;;;;-2.75;100.00;99619.16;5028456;28;20032;-81
2022/12/13 05:43:44;;;;;;;24.23;12.20;;;;;;;-2.74;100.00;99617.41;5024427;28;20044;-81
2022/12/13 05:46:13;;;;;;;21.20;10.98;;;;;;;-2.77;100.00;99615.00;5023743;28;20091;-81
2022/12/13 05:48:39;;;;;;;23.40;12.18;;;;;;;-2.76;100.00;99616.66;5005327;28;20042;-81
2022/12/13 05:51:06;;;;;;;22.02;12.10;;;;;;;-2.80;100.00;99613.38;5023318;28;20047;-81
2022/12/13 05:53:34;;;;;;;25.30;12.18;;;;;;;-2.80;100.00;99609.97;5027090;28;20632;-81
2022/12/13 05:56:02;;;;;;;26.77;13.00;;;;;;;-2.76;100.00;99617.50;5026801;28;20524;-81
2022/12/13 05:58:28;;;;;;;24.40;12.02;;;;;;;-2.71;100.00;99616.41;5002694;28;20058;-81
2022/12/13 06:00:54;;;;;;;26.17;13.48;;;;;;;-2.69;100.00;99604.25;5024685;28;20040;-82
2022/12/13 06:03:20;;;;;;;23.48;12.65;;;;;;;-2.65;100.00;99611.75;5010643;28;20041;-81
2022/12/13 06:05:46;;;;;;;27.50;13.20;;;;;;;-2.59;100.00;99609.75;5005795;28;20034;-89
2022/12/13 06:08:12;;;;;;;22.27;12.27;;;;;;;-2.59;100.00;99608.00;5014018;28;20029;-90
2022/12/13 06:10:38;;;;;;;19.02;10.90;;;;;;;-2.59;100.00;99604.56;5013154;28;20037;-81
2022/12/13 06:13:05;;;;;;;26.38;12.15;;;;;;;-2.62;100.00;99601.25;5028700;28;20025;-81
2022/12/13 06:15:31;;;;;;;23.08;11.70;;;;;;;-2.65;100.00;99600.56;5009229;28;20037;-81
2022/12/13 06:18:01;;;;;;;25.88;12.98;;;;;;;-2.65;100.00;99593.66;5002081;28;20053;-81
2022/12/13 06:20:27;;;;;;;26.80;12.85;;;;;;;-2.65;100.00;99591.06;5018558;28;20032;-81
2022/12/13 06:22:53;;;;;;;25.20;13.35;;;;;;;-2.60;100.00;99583.06;5027478;28;20398;-81
2022/12/13 06:25:19;;;;;;;23.30;11.98;;;;;;;-2.54;100.00;99592.22;5001147;28;20037;-81
2022/12/13 06:27:48;;;;;;;23.98;12.45;;;;;;;-2.45;100.00;99583.16;5027588;28;20111;-81
2022/12/13 06:30:14;;;;;;;25.98;13.07;;;;;;;-2.40;100.00;99582.00;5029724;28;20074;-80
2022/12/13 06:32:41;;;;;;;23.92;12.27;;;;;;;-2.33;100.00;99592.00;5013088;28;20033;-81
2022/12/13 06:35:08;;;;;;;24.75;12.63;;;;;;;-2.33;100.00;99579.91;5010388;28;20037;-81
2022/12/13 06:37:34;;;;;;;22.77;11.85;;;;;;;-2.34;100.00;99583.41;5009278;28;20044;-81
2022/12/13 06:40:01;;;;;;;25.98;12.98;;;;;;;-2.35;100.00;99580.91;5026792;28;20037;-81
2022/12/13 06:42:30;;;;;;;29.38;13.05;;;;;;;-2.35;100.00;99578.31;5025004;28;20033;-81
2022/12/13 06:44:56;;;;;;;25.77;13.10;;;;;;;-2.39;100.00;99565.53;5007619;28;20729;-81
2022/12/13 06:47:24;;;;;;;26.55;13.63;;;;;;;-2.39;100.00;99567.31;5009039;28;20052;-81
2022/12/13 06:49:50;;;;;;;24.27;12.65;;;;;;;-2.41;100.00;99567.38;5012346;28;20045;-81
2022/12/13 06:52:15;;;;;;;29.42;13.10;;;;;;;-2.44;100.00;99562.38;4996242;28;20140;-81
2022/12/13 06:54:42;;;;;;;22.52;12.48;;;;;;;-2.43;100.00;99561.44;5022176;28;20072;-81
2022/12/13 06:57:12;;;;;;;27.17;13.68;;;;;;;-2.47;100.00;99559.97;5014638;28;20028;-81
2022/12/13 06:59:37;;;;;;;36.85;15.70;;;;;;;-2.49;100.00;99561.78;5008630;28;20053;-90
2022/12/13 07:02:04;;;;;;;34.72;15.73;;;;;;;-2.54;100.00;99571.53;5032082;28;20037;-91
2022/12/13 07:04:34;;;;;;;30.38;15.40;;;;;;;-2.58;100.00;99562.28;5010447;28;20120;-90
2022/12/13 07:07:01;;;;;;;37.40;16.20;;;;;;;-2.60;100.00;99564.09;5016183;28;20061;-90
2022/12/13 07:09:30;;;;;;;32.05;14.88;;;;;;;-2.59;100.00;99556.25;5012191;28;20394;-82
2022/12/13 07:11:56;;;;;;;35.10;15.07;;;;;;;-2.57;100.00;99558.75;5030883;28;20497;-81
2022/12/13 07:14:22;;;;;;;35.92;15.95;;;;;;;-2.56;100.00;99557.84;5047545;28;20036;-81
2022/12/13 07:16:48;;;;;;;34.38;15.07;;;;;;;-2.52;100.00;99554.19;5030187;28;20449;-90
2022/12/13 07:19:14;;;;;;;38.85;15.15;;;;;;;-2.50;100.00;99557.53;5016461;28;20045;-91
2022/12/13 07:21:40;;;;;;;39.05;14.55;;;;;;;-2.51;100.00;99554.09;4989390;28;20042;-81
2022/12/13 07:24:06;;;;;;;36.25;16.45;;;;;;;-2.48;100.00;99560.03;5014656;28;20401;-81
2022/12/13 07:26:34;;;;;;;28.98;14.75;;;;;;;-2.45;100.00;99565.06;5031459;28;20505;-89
2022/12/13 07:29:02;;;;;;;31.08;15.23;;;;;;;-2.39;100.00;99568.13;5017439;28;20033;-89
2022/12/13 07:31:29;;;;;;;30.08;14.75;;;;;;;-2.39;100.00;99565.53;5008724;28;20394;-80
2022/12/13 07:33:55;;;;;;;30.15;14.95;;;;;;;-2.42;100.00;99570.06;5009043;28;20036;-81
2022/12/13 07:36:22;;;;;;;30.92;13.32;;;;;;;-2.47;100.00;99569.47;5025857;28;20033;-79
2022/12/13 07:38:56;;;;;;;36.42;15.07;;;;;;;-2.46;100.00;99579.72;5030267;28;20104;-80
2022/12/13 07:41:23;;;;;;;34.40;15.52;;;;;;;-2.45;100.00;99580.56;5008802;28;20052;-80
2022/12/13 07:43:49;;;;;;;36.28;14.60;;;;;;;-2.43;100.00;99589.91;5021068;28;20080;-80
2022/12/13 07:46:15;;;;;;;33.13;15.55;;;;;;;-2.43;100.00;99586.50;5008806;28;20068;-80
2022/12/13 07:48:40;;;;;;;38.72;14.95;;;;;;;-2.46;100.00;99582.31;5023658;28;20442;-80
2022/12/13 07:51:10;;;;;;;39.30;15.55;;;;;;;-2.45;100.00;99589.16;5025667;28;20044;-80
2022/12/13 07:53:37;;;;;;;35.35;14.48;;;;;;;-2.51;100.00;99592.06;5026983;28;20546;-80
2022/12/13 07:56:04;;;;;;;39.83;16.83;;;;;;;-2.53;100.00;99597.31;5003256;28;20037;-80
2022/12/13 07:58:32;;;;;;;43.80;16.27;;;;;;;-2.52;100.00;99600.75;5008295;28;20045;-79
2022/12/13 08:01:00;;;;;;;42.28;17.38;;;;;;;-2.50;100.00;99606.69;5027405;28;20566;-80
2022/12/13 08:03:27;;;;;;;37.00;16.15;;;;;;;-2.47;100.00;99608.28;5033815;28;20037;-80
2022/12/13 08:06:04;;;;;;;39.00;15.13;;;;;;;-2.39;100.00;99606.13;5014952;28;20033;-80
2022/12/13 08:08:30;;;;;;;27.80;14.30;;;;;;;-2.39;100.00;99612.13;5012838;28;20148;-80
2022/12/13 08:11:10;;;;;;;31.25;15.68;;;;;;;-2.35;100.00;99612.81;5043219;28;20038;-81
2022/12/13 08:13:38;;;;;;;38.83;14.52;;;;;;;-2.37;100.00;99612.88;5045225;28;20037;-81
2022/12/13 08:16:06;;;;;;;32.55;14.70;;;;;;;-2.36;100.00;99611.13;5029841;28;20112;-81
2022/12/13 08:18:33;;;;;;;40.00;16.10;;;;;;;-2.39;100.00;99617.28;5008351;28;20414;-80
2022/12/13 08:21:08;;;;;;;28.65;14.70;;;;;;;-2.38;100.00;99620.72;5008766;28;20124;-81
2022/12/13 08:23:34;;;;;;;32.47;14.43;;;;;;;-2.41;100.00;99620.91;5031445;28;20036;-80
2022/12/13 08:26:01;;;;;;;37.15;15.57;;;;;;;-2.40;100.00;99620.81;5047188;28;20509;-81
2022/12/13 08:28:27;;;;;;;31.23;14.00;;;;;;;-2.38;100.00;99625.91;5045798;28;20037;-80
2022/12/13 08:31:04;;;;;;;36.00;15.65;;;;;;;-2.35;100.00;99625.75;5031622;28;20037;-80
2022/12/13 08:33:30;;;;;;;35.90;16.15;;;;;;;-2.31;100.00;99619.47;5010741;28;20129;-81
2022/12/13 08:35:56;;;;;;;32.22;14.63;;;;;;;-2.29;100.00;99620.25;5002585;28;20128;-81
2022/12/13 08:38:22;;;;;;;25.00;11.30;;;;;;;-2.30;100.00;99623.75;5027509;28;20067;-81
2022/12/13 08:40:49;;;;;;;31.90;15.25;;;;;;;-2.33;100.00;99631.69;5026441;28;20095;-80
2022/12/13 08:43:15;;;;;;;35.33;14.95;;;;;;;-2.34;100.00;99629.19;5046750;28;20045;-81
2022/12/13 08:45:41;;;;;;;34.90;14.73;;;;;;;-2.34;100.00;99629.19;5021983;28;20044;-81
2022/12/13 08:48:08;;;;;;;30.40;14.05;;;;;;;-2.31;100.00;99624.66;5008932;28;20097;-82
2022/12/13 08:50:33;;;;;;;24.40;13.38;;;;;;;-2.33;100.00;99623.06;5009319;28;20486;-81
2022/12/13 08:52:59;;;;;;;29.38;13.20;;;;;;;-2.34;100.00;99624.81;5025208;28;20036;-81
2022/12/13 08:55:25;;;;;;;24.95;12.48;;;;;;;-2.35;100.00;99622.31;5027021;28;20041;-80
2022/12/13 08:57:51;;;;;;;34.13;14.32;;;;;;;-2.33;100.00;99630.84;5029808;28;20037;-80
2022/12/13 09:00:18;;;;;;;32.42;14.75;;;;;;;-2.33;100.00;99633.44;5043576;28;20485;-81
2022/12/13 09:02:44;;;;;;;27.17;13.80;;;;;;;-2.35;100.00;99630.91;5026762;28;20037;-81
2022/12/13 09:05:11;;;;;;;31.52;13.95;;;;;;;-2.32;100.00;99633.34;5017583;28;20064;-80
2022/12/13 09:07:40;;;;;;;30.48;14.75;;;;;;;-2.30;100.00;99628.09;5027820;28;20044;-81
2022/12/13 09:10:10;;;;;;;33.35;15.15;;;;;;;-2.27;100.00;99617.56;4995567;28;20056;-91
2022/12/13 09:12:40;;;;;;;27.92;13.80;;;;;;;-2.27;100.00;99626.19;5030457;28;20091;-91
2022/12/13 09:15:06;;;;;;;26.58;13.75;;;;;;;-2.29;100.00;99627.16;5012693;28;20404;-81
2022/12/13 09:17:32;;;;;;;28.52;14.80;;;;;;;-2.23;100.00;99631.19;5011786;28;20612;-81
2022/12/13 09:19:58;;;;;;;33.08;15.23;;;;;;;-2.21;100.00;99619.81;5026257;28;20124;-81
2022/12/13 09:22:24;;;;;;;29.50;15.00;;;;;;;-2.14;100.00;99625.50;5031385;28;20034;-80
2022/12/13 09:24:50;;;;;;;34.60;16.77;;;;;;;-2.13;100.00;99630.59;5022320;28;20045;-80
2022/12/13 09:27:15;;;;;;;30.73;14.50;;;;;;;-2.09;100.00;99635.63;5027581;28;20045;-81
2022/12/13 09:29:41;;;;;;;31.40;15.13;;;;;;;-2.06;100.00;99628.53;5017774;28;20053;-81
2022/12/13 09:32:07;;;;;;;25.42;14.07;;;;;;;-1.98;100.00;99629.84;5008497;28;20037;-81
2022/12/13 09:34:33;;;;;;;29.77;15.90;;;;;;;-1.97;100.00;99622.00;4998575;28;20398;-90
2022/12/13 09:36:59;;;;;;;24.60;14.00;;;;;;;-1.93;100.00;99633.88;5012856;28;20072;-90
2022/12/13 09:39:25;;;;;;;28.67;15.30;;;;;;;-1.93;100.00;99633.88;5047145;28;20098;-89
2022/12/13 09:41:54;;;;;;;28.48;13.98;;;;;;;-1.90;100.00;99638.91;5028696;28;20041;-81
2022/12/13 09:44:46;;;;;;;25.98;14.45;;;;;;;-1.89;100.00;99637.13;5004282;28;20120;-80
2022/12/13 09:47:18;;;;;;;24.65;13.85;;;;;;;-1.95;100.00;99640.03;5043359;28;20037;-81
2022/12/13 09:49:45;;;;;;;31.73;16.30;;;;;;;-1.97;100.00;99637.53;5027423;28;20046;-80
2022/12/13 09:52:17;;;;;;;26.10;13.23;;;;;;;-1.96;100.00;99634.06;5036119;28;20064;-81
2022/12/13 09:54:43;;;;;;;28.77;14.73;;;;;;;-1.98;100.00;99635.88;5022865;28;20030;-81
2022/12/13 09:57:23;;;;;;;30.17;15.10;;;;;;;-1.90;100.00;99638.91;5009639;28;20049;-80
2022/12/13 09:59:49;;;;;;;27.92;14.48;;;;;;;-1.94;100.00;99639.97;5036885;28;20046;-90
2022/12/13 10:02:23;;;;;;;23.15;12.85;;;;;;;-1.88;100.00;99634.44;5047400;28;20034;-90
2022/12/13 10:04:48;;;;;;;23.95;14.77;;;;;;;-1.88;100.00;99636.22;5032057;28;20489;-81
2022/12/13 10:07:21;;;;;;;29.02;15.00;;;;;;;-1.84;100.00;99631.69;5041855;28;20033;-81
2022/12/13 10:09:48;;;;;;;27.00;14.60;;;;;;;-1.84;100.00;99623.91;5011058;28;20085;-89
2022/12/13 10:12:15;;;;;;;29.42;15.00;;;;;;;-1.82;100.00;99632.44;5013582;28;20088;-91
2022/12/13 10:14:50;;;;;;;29.52;15.25;;;;;;;-1.81;100.00;99636.69;5027325;28;20557;-81
2022/12/13 10:17:20;;;;;;;29.48;15.45;;;;;;;-1.81;100.00;99640.13;5026933;28;20452;-81
2022/12/13 10:19:50;;;;;;;28.30;14.93;;;;;;;-1.78;100.00;99644.28;5018011;28;20643;-88
2022/12/13 10:22:19;;;;;;;27.55;15.13;;;;;;;-1.79;100.00;99640.03;4993343;28;20041;-89
2022/12/13 10:24:51;;;;;;;28.40;16.25;;;;;;;-1.79;100.00;99634.88;5017924;28;20069;-90
2022/12/13 10:27:20;;;;;;;25.48;15.30;;;;;;;-1.79;100.00;99634.88;5030394;28;20044;-89
2022/12/13 10:30:06;;;;;;;23.10;13.15;;;;;;;-1.81;100.00;99631.50;5031323;28;20379;-89
2022/12/13 10:32:43;;;;;;;26.92;13.98;;;;;;;-1.85;100.00;99636.06;5017409;28;20391;-91
2022/12/13 10:35:31;;;;;;;26.00;15.75;;;;;;;-1.82;100.00;99645.41;5016720;28;20069;-82
2022/12/13 10:38:01;;;;;;;26.10;13.95;;;;;;;-1.81;100.00;99645.31;5025407;28;20029;-80
2022/12/13 10:40:35;;;;;;;25.42;14.52;;;;;;;-1.78;100.00;99647.72;5027167;28;20088;-80
2022/12/13 10:43:16;;;;;;;22.70;10.23;;;;;;;-1.80;100.00;99644.38;5047978;28;20072;-81
2022/12/13 10:45:55;;;;;;;28.73;14.52;;;;;;;-1.80;100.00;99646.16;5007192;28;20037;-81
2022/12/13 10:48:25;;;;;;;22.02;12.13;;;;;;;-1.79;100.00;99642.63;5028498;28;20037;-80
2022/12/13 10:51:16;;;;;;;27.65;16.70;;;;;;;-1.81;100.00;99639.28;5031841;28;20040;-81
2022/12/13 10:53:56;;;;;;;33.63;17.85;;;;;;;-1.78;100.00;99641.72;5008925;28;20044;-81
2022/12/13 10:56:33;;;;;;;37.05;18.95;;;;;;;-1.78;100.00;99644.28;5026084;28;20121;-81
2022/12/13 10:59:24;;;;;;;27.10;14.68;;;;;;;-1.77;100.00;99633.84;5047300;28;20053;-81
2022/12/13 11:01:50;;;;;;;25.17;13.43;;;;;;;-1.72;100.00;99641.38;5010300;28;20041;-80
2022/12/13 11:04:28;;;;;;;20.83;12.38;;;;;;;-1.70;100.00;99634.34;5031155;28;20033;-81
2022/12/13 11:06:56;;;;;;;25.85;13.85;;;;;;;-1.67;100.00;99634.19;5014021;28;20536;-81
2022/12/13 11:09:26;;;;;;;25.05;14.52;;;;;;;-1.65;100.00;99629.75;5029175;28;20044;-81
2022/12/13 11:11:55;;;;;;;23.77;12.25;;;;;;;-1.62;100.00;99621.81;5029499;28;20559;-81
2022/12/13 11:14:25;;;;;;;24.42;13.90;;;;;;;-1.60;100.00;99608.75;5013755;28;20173;-81
2022/12/13 11:16:56;;;;;;;23.65;13.98;;;;;;;-1.57;100.00;99611.19;5045192;28;20066;-81
2022/12/13 11:19:35;;;;;;;28.77;16.48;;;;;;;-1.52;100.00;99605.72;5030760;28;21791;-81
2022/12/13 11:22:01;;;;;;;24.45;14.68;;;;;;;-1.50;100.00;99609.09;5040056;28;20064;-81
2022/12/13 11:24:34;;;;;;;22.83;13.73;;;;;;;-1.43;100.00;99602.63;5035069;28;20073;-81
2022/12/13 11:27:35;;;;;;;25.98;14.13;;;;;;;-1.42;100.00;99606.88;5034199;28;20028;-90
2022/12/13 11:30:13;;;;;;;24.67;15.43;;;;;;;-1.38;100.00;99602.34;5029970;28;20045;-90